Time;durP1;ratioP1;P1;durP2;ratioP2;P2;SDS_P1;SDS_P2;PMS_P1;PMS_P2;Temp;Humidity;BMP_temperature;BMP_pressure;BME280_temperature;BME280_humidity;BME280_pressure;Samples;Min_cycle;Max_cycle;Signal;HPM_P1;HPM_P2
2022/04/01 00:00:11;;;;;;;30.33;6.35;;;;;;;15.22;nan;93468.59;5064239;28;20201;-70
2022/04/01 00:02:40;;;;;;;22.63;6.35;;;;;;;15.03;nan;93489.66;5064959;28;20259;-69
2022/04/01 00:05:08;;;;;;;24.77;6.30;;;;;;;14.81;nan;93495.56;5064559;28;20308;-70
2022/04/01 00:07:38;;;;;;;27.92;6.05;;;;;;;14.70;nan;93480.22;5064265;28;20225;-70
2022/04/01 00:10:06;;;;;;;25.85;6.78;;;;;;;14.71;nan;93468.22;5063744;28;20233;-69
2022/04/01 00:12:33;;;;;;;27.20;6.38;;;;;;;14.75;nan;93462.78;5064469;28;20233;-69
2022/04/01 00:14:59;;;;;;;37.90;6.85;;;;;;;14.80;nan;93457.31;5064604;28;20571;-69
2022/04/01 00:17:26;;;;;;;32.25;6.22;;;;;;;14.93;nan;93432.44;5065633;28;22606;-69
2022/04/01 00:19:53;;;;;;;24.92;6.53;;;;;;;14.72;nan;93442.56;5063764;28;20738;-69
2022/04/01 00:22:19;;;;;;;33.67;7.78;;;;;;;14.76;nan;93453.38;5064505;28;20788;-69
2022/04/01 00:24:48;;;;;;;30.27;7.00;;;;;;;14.65;nan;93456.72;5063416;28;20202;-69
2022/04/01 00:27:14;;;;;;;32.00;6.70;;;;;;;14.54;nan;93443.94;5065671;28;20205;-69
2022/04/01 00:29:41;;;;;;;33.28;7.18;;;;;;;14.63;nan;93438.13;5064688;28;20846;-69
2022/04/01 00:32:08;;;;;;;38.97;7.32;;;;;;;14.77;nan;93462.66;5065516;28;20225;-69
2022/04/01 00:34:36;;;;;;;31.23;6.53;;;;;;;14.80;nan;93470.94;5063194;28;20209;-69
2022/04/01 00:37:04;;;;;;;35.03;7.63;;;;;;;14.92;nan;93475.09;5062798;28;20210;-69
2022/04/01 00:39:32;;;;;;;27.73;6.53;;;;;;;15.02;nan;93461.63;5064979;28;20210;-69
2022/04/01 00:42:02;;;;;;;26.63;7.88;;;;;;;15.03;nan;93448.72;5061891;28;20210;-68
2022/04/01 00:44:31;;;;;;;25.58;5.93;;;;;;;14.90;nan;93451.38;5064025;28;20274;-68
2022/04/01 00:47:11;;;;;;;34.60;6.63;;;;;;;14.90;nan;93432.66;5063749;28;20684;-69
2022/04/01 00:49:39;;;;;;;38.70;7.68;;;;;;;14.84;nan;93446.75;5064910;28;20302;-70
2022/04/01 00:52:08;;;;;;;36.92;7.97;;;;;;;14.75;nan;93444.06;5063798;28;20664;-69
2022/04/01 00:54:36;;;;;;;39.55;8.65;;;;;;;14.78;nan;93415.72;5063210;28;20198;-70
2022/04/01 00:57:05;;;;;;;37.47;8.13;;;;;;;15.01;nan;93427.56;5060793;28;20241;-69
2022/04/01 00:59:33;;;;;;;36.72;9.57;;;;;;;15.04;nan;93432.44;5062878;28;20314;-70
2022/04/01 01:02:00;;;;;;;43.97;7.97;;;;;;;14.97;nan;93429.53;5060026;28;20281;-70
2022/04/01 01:04:27;;;;;;;38.70;8.93;;;;;;;15.11;nan;93433.56;5061650;28;20213;-70
2022/04/01 01:06:57;;;;;;;29.83;7.38;;;;;;;15.31;nan;93427.75;5062826;28;20253;-69
2022/04/01 01:09:25;;;;;;;37.13;7.80;;;;;;;15.46;nan;93427.47;5063290;28;20234;-69
2022/04/01 01:11:52;;;;;;;34.90;8.30;;;;;;;15.31;nan;93439.75;5062145;28;20196;-68
2022/04/01 01:14:26;;;;;;;39.45;8.95;;;;;;;15.15;nan;93442.66;5062967;28;20707;-69
2022/04/01 01:16:53;;;;;;;40.45;8.38;;;;;;;15.17;nan;93432.31;5063614;28;20714;-69
2022/04/01 01:19:21;;;;;;;27.05;7.35;;;;;;;15.11;nan;93432.75;5063588;28;20198;-69
2022/04/01 01:21:51;;;;;;;24.23;8.18;;;;;;;15.11;nan;93437.88;5062385;28;20739;-69
2022/04/01 01:24:29;;;;;;;38.20;7.72;;;;;;;15.00;nan;93443.84;5063256;28;20207;-69
2022/04/01 01:26:57;;;;;;;36.72;8.25;;;;;;;15.03;nan;93437.69;5063879;28;20290;-69
2022/04/01 01:29:26;;;;;;;42.50;9.43;;;;;;;15.16;nan;93430.66;5064220;28;20753;-70
2022/04/01 01:31:55;;;;;;;36.92;9.57;;;;;;;15.23;nan;93458.25;5059757;28;20233;-69
2022/04/01 01:34:22;;;;;;;37.95;8.52;;;;;;;15.46;nan;93433.41;5061590;28;20431;-70
2022/04/01 01:36:50;;;;;;;42.65;8.35;;;;;;;15.47;nan;93440.16;5062851;28;20209;-69
2022/04/01 01:39:16;;;;;;;53.20;7.63;;;;;;;15.53;nan;93449.94;5059769;28;20601;-70
2022/04/01 01:41:45;;;;;;;31.85;8.65;;;;;;;15.42;nan;93461.94;5061605;28;20278;-69
2022/04/01 01:44:12;;;;;;;41.97;9.30;;;;;;;15.30;nan;93449.16;5062970;28;20212;-70
2022/04/01 01:46:39;;;;;;;44.13;8.43;;;;;;;15.45;nan;93442.03;5061372;28;20693;-70
2022/04/01 01:49:06;;;;;;;37.40;8.05;;;;;;;15.45;nan;93423.28;5059496;28;20257;-70
2022/04/01 01:57:05;;;;;;;43.72;8.55;;;;;;;15.63;nan;93430.38;5063821;28;21436;-71
2022/04/01 01:59:33;;;;;;;49.53;9.57;;;;;;;15.65;nan;93418.25;5061939;28;20198;-70
2022/04/01 02:02:02;;;;;;;58.50;9.02;;;;;;;15.71;nan;93399.03;5062021;28;20208;-70
2022/04/01 02:04:29;;;;;;;41.63;8.77;;;;;;;15.72;nan;93399.84;5061509;28;20217;-70
2022/04/01 02:06:56;;;;;;;47.67;9.60;;;;;;;15.90;nan;93367.63;5062970;28;20622;-70
2022/04/01 02:09:22;;;;;;;48.08;8.50;;;;;;;15.97;nan;93387.50;5061816;28;22048;-70
2022/04/01 02:11:50;;;;;;;44.50;9.02;;;;;;;15.91;nan;93374.38;5062871;28;20202;-69
2022/04/01 02:14:18;;;;;;;42.03;8.00;;;;;;;15.81;nan;93396.56;5062173;28;20561;-70
2022/04/01 02:16:45;;;;;;;37.22;9.20;;;;;;;15.87;nan;93385.81;5062061;28;20671;-70
2022/04/01 02:19:12;;;;;;;47.22;10.57;;;;;;;15.75;nan;93381.69;5062652;28;20201;-70
2022/04/01 02:21:39;;;;;;;45.33;8.43;;;;;;;15.78;nan;93366.06;5061537;28;20237;-70
2022/04/01 02:24:10;;;;;;;40.00;8.73;;;;;;;15.74;nan;93369.81;5061687;28;20202;-70
2022/04/01 02:26:37;;;;;;;57.83;8.80;;;;;;;15.89;nan;93355.75;5061529;28;20233;-70
2022/04/01 02:29:05;;;;;;;48.60;12.15;;;;;;;15.89;nan;93348.06;5062072;28;20282;-70
2022/04/01 02:31:33;;;;;;;45.42;9.38;;;;;;;16.00;nan;93353.16;5068070;28;20201;-70
2022/04/01 02:34:00;;;;;;;56.35;9.05;;;;;;;16.16;nan;93322.75;5069291;28;20224;-70
2022/04/01 02:36:27;;;;;;;54.30;10.48;;;;;;;16.18;nan;93333.69;5068798;28;20229;-69
2022/04/01 02:38:54;;;;;;;56.50;9.80;;;;;;;16.09;nan;93302.88;5068685;28;20202;-70
2022/04/01 02:41:22;;;;;;;58.95;10.15;;;;;;;16.05;nan;93306.66;5066681;28;20292;-70
2022/04/01 02:43:49;;;;;;;53.03;9.48;;;;;;;16.08;nan;93302.09;5067840;28;20205;-70
2022/04/01 02:46:16;;;;;;;49.75;10.13;;;;;;;15.92;nan;93314.53;5068514;28;20201;-70
2022/04/01 02:48:44;;;;;;;54.10;10.35;;;;;;;16.02;nan;93309.47;5069471;28;20235;-70
2022/04/01 02:51:11;;;;;;;52.95;9.05;;;;;;;16.07;nan;93300.47;5067149;28;20225;-70
2022/04/01 02:53:38;;;;;;;56.13;10.45;;;;;;;16.13;nan;93284.56;5068085;28;20621;-69
2022/04/01 02:56:05;;;;;;;56.42;9.07;;;;;;;16.28;nan;93290.19;5067053;28;20228;-70
2022/04/01 02:58:32;;;;;;;50.17;10.18;;;;;;;16.94;nan;93278.53;5068077;28;20312;-70
2022/04/01 03:00:59;;;;;;;46.38;8.90;;;;;;;16.72;nan;93276.19;5067364;28;20259;-69
2022/04/01 03:03:26;;;;;;;52.90;9.90;;;;;;;16.64;nan;93279.41;5069424;28;20575;-69
2022/04/01 03:05:55;;;;;;;57.22;9.63;;;;;;;16.52;nan;93282.19;5069265;28;20245;-69
2022/04/01 03:08:22;;;;;;;67.28;11.18;;;;;;;16.49;nan;93288.38;5068859;28;20250;-71
2022/04/01 03:10:49;;;;;;;52.70;9.80;;;;;;;16.55;nan;93279.34;5068481;28;20260;-71
2022/04/01 03:13:16;;;;;;;56.78;10.95;;;;;;;16.47;nan;93307.38;5069349;28;20205;-69
2022/04/01 03:15:42;;;;;;;55.45;11.20;;;;;;;16.47;nan;93307.38;5070184;28;20212;-71
2022/04/01 03:18:09;;;;;;;68.00;9.65;;;;;;;16.49;nan;93302.94;5069232;28;20688;-70
2022/04/01 03:20:37;;;;;;;51.53;10.70;;;;;;;16.56;nan;93299.75;5069292;28;20970;-71
2022/04/01 03:23:06;;;;;;;48.47;10.63;;;;;;;16.51;nan;93294.19;5069007;28;20229;-72
2022/04/01 03:25:33;;;;;;;58.35;10.63;;;;;;;16.44;nan;93284.56;5068255;28;20228;-71
2022/04/01 03:28:02;;;;;;;46.55;9.15;;;;;;;16.50;nan;93315.63;5069632;28;20305;-68
2022/04/01 03:30:30;;;;;;;53.50;10.68;;;;;;;16.56;nan;93311.75;5068434;28;20607;-69
2022/04/01 03:32:57;;;;;;;77.15;12.85;;;;;;;16.56;nan;93296.38;5069008;28;20201;-70
2022/04/01 03:35:24;;;;;;;62.50;11.48;;;;;;;16.68;nan;93287.66;5068686;28;20829;-68
2022/04/01 03:37:52;;;;;;;66.60;11.15;;;;;;;16.76;nan;93292.13;5068942;28;20287;-69
2022/04/01 03:40:21;;;;;;;52.78;9.68;;;;;;;16.77;nan;93299.69;5067614;28;20197;-68
2022/04/01 03:42:51;;;;;;;71.70;11.65;;;;;;;16.80;nan;93291.75;5065684;28;20730;-69
2022/04/01 03:45:19;;;;;;;67.18;11.65;;;;;;;16.86;nan;93293.75;5064846;28;20300;-69
2022/04/01 03:47:52;;;;;;;63.78;12.63;;;;;;;16.81;nan;93288.22;5066808;28;20209;-70
2022/04/01 03:50:29;;;;;;;62.28;11.25;;;;;;;16.89;nan;93295.25;5064952;28;21346;-68
2022/04/01 03:53:04;;;;;;;61.10;13.23;;;;;;;16.71;nan;93300.22;5065092;28;20301;-68
2022/04/01 03:55:35;;;;;;;70.63;11.70;;;;;;;16.61;nan;93289.06;5065162;28;20201;-69
2022/04/01 03:58:08;;;;;;;66.30;10.73;;;;;;;16.61;nan;93283.94;5065783;28;20202;-69
2022/04/01 04:00:35;;;;;;;64.18;11.80;;;;;;;16.82;nan;93282.16;5064318;28;20202;-69
2022/04/01 04:03:07;;;;;;;77.57;13.90;;;;;;;16.75;nan;93291.31;5064752;28;20306;-71
2022/04/01 04:05:36;;;;;;;85.45;11.18;;;;;;;16.81;nan;93289.97;5065572;28;20292;-69
2022/04/01 04:08:03;;;;;;;65.97;10.52;;;;;;;16.99;nan;93262.72;5066055;28;20202;-71
2022/04/01 04:10:32;;;;;;;79.75;13.43;;;;;;;16.89;nan;93267.84;5065432;28;20233;-69
2022/04/01 04:13:01;;;;;;;72.88;12.00;;;;;;;16.92;nan;93272.72;5064779;28;20738;-69
2022/04/01 04:15:29;;;;;;;72.60;12.45;;;;;;;16.94;nan;93275.97;5064751;28;20233;-68
2022/04/01 04:18:00;;;;;;;51.42;11.52;;;;;;;16.48;nan;93278.25;5066247;28;20203;-70
2022/04/01 04:20:35;;;;;;;59.95;10.93;;;;;;;16.66;nan;93267.25;5063217;28;20290;-71
2022/04/01 04:23:09;;;;;;;69.82;11.18;;;;;;;16.84;nan;93258.91;5065860;28;20241;-69
2022/04/01 04:25:38;;;;;;;58.10;12.50;;;;;;;16.99;nan;93266.09;5064424;28;20763;-70
2022/04/01 04:28:10;;;;;;;104.22;14.35;;;;;;;16.98;nan;93267.06;5066911;28;20255;-69
2022/04/01 04:30:40;;;;;;;55.15;10.45;;;;;;;17.07;nan;93264.63;5064246;28;20233;-70
2022/04/01 04:33:08;;;;;;;50.53;11.07;;;;;;;16.99;nan;93268.69;5064697;28;20213;-70
2022/04/01 04:35:38;;;;;;;69.10;12.10;;;;;;;16.77;nan;93276.59;5064758;28;20319;-70
2022/04/01 04:38:08;;;;;;;51.65;10.23;;;;;;;16.66;nan;93282.66;5065999;28;20193;-70
2022/04/01 04:40:35;;;;;;;52.95;9.77;;;;;;;16.27;nan;93276.56;5064069;28;20197;-69
2022/04/01 04:43:03;;;;;;;47.08;9.35;;;;;;;15.64;nan;93285.22;5065252;28;20803;-69
2022/04/01 04:45:31;;;;;;;62.67;10.50;;;;;;;15.86;nan;93303.03;5064708;28;20233;-69
2022/04/01 04:47:59;;;;;;;59.25;10.30;;;;;;;16.11;nan;93295.88;5064769;28;20681;-70
2022/04/01 04:50:26;;;;;;;45.05;10.43;;;;;;;15.93;nan;93287.97;5063420;28;20483;-70
2022/04/01 04:52:56;;;;;;;47.13;11.38;;;;;;;15.95;nan;93291.22;5063224;28;20283;-69
2022/04/01 04:55:24;;;;;;;43.80;10.07;;;;;;;15.81;nan;93268.50;5064234;28;20202;-69
2022/04/01 04:57:53;;;;;;;81.03;13.18;;;;;;;16.05;nan;93248.53;5064790;28;20621;-69
2022/04/01 05:00:21;;;;;;;58.60;10.98;;;;;;;16.16;nan;93286.88;5064262;28;20205;-68
2022/04/01 05:03:07;;;;;;;57.17;10.70;;;;;;;15.87;nan;93281.59;5064844;28;20237;-69
2022/04/01 05:05:40;;;;;;;50.58;9.73;;;;;;;15.57;nan;93290.06;5063938;28;20712;-69
2022/04/01 05:08:17;;;;;;;40.95;9.63;;;;;;;15.29;nan;93282.94;5065071;28;20921;-70
2022/04/01 05:10:52;;;;;;;44.75;8.20;;;;;;;15.30;nan;93299.91;5063251;28;20252;-70
2022/04/01 05:13:23;;;;;;;63.65;10.98;;;;;;;15.25;nan;93284.94;5064062;28;20232;-70
2022/04/01 05:15:54;;;;;;;62.45;11.85;;;;;;;15.03;nan;93276.53;5063598;28;20615;-70
2022/04/01 05:18:29;;;;;;;63.65;11.20;;;;;;;15.34;nan;93296.19;5062531;28;20565;-71
2022/04/01 05:21:01;;;;;;;55.15;9.25;;;;;;;15.61;nan;93273.50;5062522;28;20293;-71
2022/04/01 05:23:41;;;;;;;68.50;9.82;;;;;;;15.51;nan;93271.78;5062499;28;20233;-70
2022/04/01 05:26:12;;;;;;;61.97;10.77;;;;;;;15.56;nan;93279.94;5062445;28;20210;-70
2022/04/01 05:28:45;;;;;;;42.20;8.43;;;;;;;15.79;nan;93270.38;5063747;28;20193;-69
2022/04/01 05:31:20;;;;;;;48.25;9.45;;;;;;;15.89;nan;93282.28;5062313;28;21082;-69
2022/04/01 05:33:53;;;;;;;52.72;11.05;;;;;;;15.83;nan;93279.44;5063330;28;20234;-70
2022/04/01 05:36:20;;;;;;;39.90;8.30;;;;;;;15.71;nan;93263.31;5064519;28;20229;-70
2022/04/01 05:38:48;;;;;;;65.80;11.43;;;;;;;15.49;nan;93269.34;5063895;28;20193;-69
2022/04/01 05:41:19;;;;;;;44.95;8.35;;;;;;;15.65;nan;93276.63;5062176;28;20198;-70
2022/04/01 05:43:47;;;;;;;64.63;11.10;;;;;;;15.85;nan;93283.47;5063341;28;20228;-70
2022/04/01 05:46:15;;;;;;;52.13;9.43;;;;;;;15.73;nan;93291.38;5061997;28;20239;-70
2022/04/01 05:48:41;;;;;;;56.28;11.18;;;;;;;15.73;nan;93286.25;5060832;28;20198;-69
2022/04/01 05:51:13;;;;;;;66.78;12.55;;;;;;;15.47;nan;93260.16;5060911;28;20732;-70
2022/04/01 05:53:40;;;;;;;59.50;11.77;;;;;;;15.94;nan;93269.91;5062329;28;20198;-70
2022/04/01 05:56:09;;;;;;;59.78;10.65;;;;;;;16.32;nan;93277.00;5062133;28;20205;-70
2022/04/01 05:58:36;;;;;;;61.60;9.68;;;;;;;15.76;nan;93266.31;5063800;28;20198;-70
2022/04/01 06:01:12;;;;;;;52.17;9.15;;;;;;;15.90;nan;93272.84;5063089;28;21851;-70
2022/04/01 06:04:14;;;;;;;40.97;9.82;;;;;;;16.80;nan;93275.53;5064051;28;20288;-69
2022/04/01 06:06:44;;;;;;;56.15;9.90;;;;;;;17.24;nan;93276.81;5064494;28;20229;-70
2022/04/01 06:09:27;;;;;;;62.25;10.30;;;;;;;17.12;nan;93283.00;5062661;28;20201;-71
2022/04/01 06:12:01;;;;;;;49.92;8.88;;;;;;;17.75;nan;93293.72;5064673;28;20258;-68
2022/04/01 06:14:37;;;;;;;52.22;9.57;;;;;;;18.02;nan;93247.53;5062801;28;20628;-69
2022/04/01 06:17:09;;;;;;;48.17;8.85;;;;;;;19.80;nan;93263.25;5062086;28;20205;-69
2022/04/01 06:19:44;;;;;;;51.50;11.45;;;;;;;20.76;nan;93282.88;5063101;28;20193;-69
2022/04/01 06:22:14;;;;;;;45.25;10.10;;;;;;;22.04;nan;93279.84;5062777;28;20268;-69
2022/04/01 06:24:51;;;;;;;49.85;10.38;;;;;;;21.73;nan;93296.00;5063920;28;20202;-69
2022/04/01 06:27:23;;;;;;;53.47;12.35;;;;;;;23.24;nan;93302.16;5062292;28;20672;-69
2022/04/01 06:30:03;;;;;;;51.63;10.82;;;;;;;23.70;nan;93283.09;5062852;28;20201;-68
2022/04/01 06:32:37;;;;;;;63.25;14.15;;;;;;;22.92;nan;93275.44;5062487;28;20201;-69
2022/04/01 06:35:09;;;;;;;47.15;12.00;;;;;;;22.52;nan;93273.75;5063235;28;20209;-69
2022/04/01 06:37:43;;;;;;;53.40;11.32;;;;;;;22.12;nan;93250.59;5063223;28;20205;-70
2022/04/01 06:40:12;;;;;;;67.05;11.68;;;;;;;21.62;nan;93280.81;5064108;28;20206;-70
2022/04/01 06:42:41;;;;;;;53.63;11.68;;;;;;;21.31;nan;93287.56;5062223;28;20994;-69
2022/04/01 06:45:10;;;;;;;56.22;11.30;;;;;;;21.46;nan;93290.34;5063419;28;20983;-70
2022/04/01 06:47:36;;;;;;;61.35;10.88;;;;;;;21.91;nan;93274.34;5061872;28;21000;-70
2022/04/01 06:50:04;;;;;;;61.50;12.95;;;;;;;23.43;nan;93283.59;5062583;28;20326;-70
2022/04/01 06:52:31;;;;;;;55.45;11.98;;;;;;;23.52;nan;93289.50;5062762;28;20233;-69
2022/04/01 06:54:59;;;;;;;72.15;12.77;;;;;;;22.94;nan;93319.31;5063015;28;20263;-69
2022/04/01 06:57:26;;;;;;;65.57;12.35;;;;;;;23.67;nan;93291.22;5061148;28;20236;-70
2022/04/01 06:59:53;;;;;;;48.80;10.25;;;;;;;24.08;nan;93285.69;5061164;28;20484;-70
2022/04/01 07:02:19;;;;;;;58.35;12.55;;;;;;;23.84;nan;93280.72;5062628;28;20689;-70
2022/04/01 07:04:46;;;;;;;67.45;15.82;;;;;;;23.96;nan;93297.50;5063898;28;20228;-69
2022/04/01 07:07:13;;;;;;;50.03;12.75;;;;;;;24.25;nan;93284.59;5061798;28;20580;-71
2022/04/01 07:09:40;;;;;;;52.78;11.57;;;;;;;24.03;nan;93301.78;5063383;28;20411;-69
2022/04/01 07:12:08;;;;;;;56.33;12.32;;;;;;;25.34;nan;93296.03;5061994;28;20336;-69
2022/04/01 07:14:35;;;;;;;50.55;10.07;;;;;;;25.04;nan;93318.69;5062672;28;20887;-69
2022/04/01 07:17:02;;;;;;;56.53;11.07;;;;;;;24.00;nan;93296.16;5062401;28;21452;-69
2022/04/01 07:19:29;;;;;;;64.72;12.80;;;;;;;24.01;nan;93292.56;5064714;28;20233;-70
2022/04/01 07:21:56;;;;;;;68.35;11.57;;;;;;;23.35;nan;93306.94;5067075;28;21747;-69
2022/04/01 07:24:23;;;;;;;67.50;11.60;;;;;;;23.43;nan;93281.00;5065380;28;20301;-69
2022/04/01 07:26:51;;;;;;;72.38;12.30;;;;;;;24.26;nan;93300.97;5066786;28;20190;-69
2022/04/01 07:29:19;;;;;;;50.72;12.27;;;;;;;25.52;nan;93293.81;5064313;28;20572;-70
2022/04/01 07:34:34;;;;;;;73.07;13.18;;;;;;;24.48;nan;93299.31;5066040;28;22180;-69
2022/04/01 07:37:01;;;;;;;63.67;11.93;;;;;;;24.27;nan;93293.00;5066742;28;20201;-69
2022/04/01 07:39:28;;;;;;;73.13;13.10;;;;;;;24.54;nan;93257.03;5065029;28;20210;-68
2022/04/01 07:41:55;;;;;;;64.93;10.88;;;;;;;25.87;nan;93260.97;5065003;28;20194;-68
2022/04/01 07:44:23;;;;;;;55.72;11.90;;;;;;;26.99;nan;93266.13;5066397;28;20206;-70
2022/04/01 07:46:50;;;;;;;63.63;12.35;;;;;;;27.52;nan;93261.91;5064925;28;20205;-69
2022/04/01 07:49:16;;;;;;;65.70;11.68;;;;;;;27.64;nan;93278.63;5066065;28;20235;-69
2022/04/01 07:51:44;;;;;;;52.05;11.75;;;;;;;26.20;nan;93271.66;5064260;28;20788;-68
2022/04/01 07:54:11;;;;;;;45.78;12.55;;;;;;;25.07;nan;93289.72;5065043;28;20296;-68
2022/04/01 07:56:40;;;;;;;58.92;10.70;;;;;;;24.83;nan;93257.03;5065797;28;20263;-69
2022/04/01 07:59:07;;;;;;;53.97;10.18;;;;;;;25.11;nan;93240.78;5065517;28;20198;-69
2022/04/01 08:01:36;;;;;;;68.68;13.95;;;;;;;26.37;nan;93252.16;5065568;28;20251;-69
2022/04/01 08:04:03;;;;;;;75.28;14.07;;;;;;;26.58;nan;93268.72;5064878;28;20667;-68
2022/04/01 08:06:30;;;;;;;57.30;11.85;;;;;;;27.77;nan;93260.38;5064007;28;20286;-69
2022/04/01 08:08:58;;;;;;;52.83;10.05;;;;;;;28.44;nan;93267.25;5064720;28;20686;-70
2022/04/01 08:11:25;;;;;;;64.90;12.15;;;;;;;29.13;nan;93260.66;5064320;28;20225;-68
2022/04/01 08:13:52;;;;;;;60.55;12.27;;;;;;;27.86;nan;93275.84;5065230;28;20248;-69
2022/04/01 08:16:19;;;;;;;67.65;11.30;;;;;;;26.31;nan;93257.31;5064930;28;20278;-69
2022/04/01 08:18:47;;;;;;;61.17;10.93;;;;;;;25.52;nan;93303.41;5063981;28;20696;-68
2022/04/01 08:21:14;;;;;;;68.40;11.65;;;;;;;24.24;nan;93259.66;5062053;28;20289;-70
2022/04/01 08:23:41;;;;;;;73.72;12.50;;;;;;;24.22;nan;93258.19;5064645;28;20217;-68
2022/04/01 08:26:08;;;;;;;58.90;10.25;;;;;;;24.08;nan;93257.16;5065627;28;20213;-69
2022/04/01 08:28:35;;;;;;;68.93;11.43;;;;;;;23.99;nan;93264.22;5064385;28;20350;-69
2022/04/01 08:31:03;;;;;;;51.47;11.00;;;;;;;24.24;nan;93244.06;5064180;28;20240;-68
2022/04/01 08:33:29;;;;;;;57.28;12.57;;;;;;;24.45;nan;93247.75;5063749;28;20229;-70
2022/04/01 08:35:58;;;;;;;60.67;11.25;;;;;;;24.65;nan;93264.41;5064536;28;20225;-70
2022/04/01 08:38:25;;;;;;;51.38;9.68;;;;;;;24.72;nan;93234.94;5064786;28;20205;-69
2022/04/01 08:40:52;;;;;;;55.00;10.32;;;;;;;24.70;nan;93238.69;5064684;28;20238;-70
2022/04/01 08:43:25;;;;;;;65.95;12.77;;;;;;;23.92;nan;93252.94;5063474;28;20194;-69
2022/04/01 08:45:52;;;;;;;68.63;12.25;;;;;;;23.59;nan;93226.44;5064815;28;20217;-69
2022/04/01 08:48:19;;;;;;;62.15;10.68;;;;;;;23.72;nan;93236.25;5063022;28;20263;-70
2022/04/01 08:50:46;;;;;;;63.38;11.05;;;;;;;23.37;nan;93199.53;5064360;28;21133;-69
2022/04/01 08:53:14;;;;;;;57.20;9.82;;;;;;;22.62;nan;93201.09;5063188;28;20293;-69
2022/04/01 08:55:46;;;;;;;55.20;11.07;;;;;;;22.81;nan;93216.22;5064479;28;20198;-69
2022/04/01 08:58:13;;;;;;;69.80;10.77;;;;;;;22.56;nan;93181.06;5065294;28;20221;-70
2022/04/01 09:00:39;;;;;;;59.85;10.63;;;;;;;22.15;nan;93204.50;5063198;28;20205;-70
2022/04/01 09:03:09;;;;;;;70.45;13.85;;;;;;;22.18;nan;93188.66;5063364;28;20293;-69
2022/04/01 09:05:36;;;;;;;60.63;11.20;;;;;;;22.78;nan;93182.91;5064566;28;20234;-68
2022/04/01 09:08:05;;;;;;;58.00;10.18;;;;;;;23.08;nan;93174.31;5062797;28;20209;-68
2022/04/01 09:10:50;;;;;;;73.82;12.90;;;;;;;22.92;nan;93182.19;5062861;28;20327;-69
2022/04/01 09:13:18;;;;;;;49.25;10.25;;;;;;;22.74;nan;93122.06;5061598;28;20255;-70
2022/04/01 09:15:45;;;;;;;71.05;11.05;;;;;;;22.33;nan;93162.88;5063800;28;21406;-69
2022/04/01 09:18:12;;;;;;;64.35;10.70;;;;;;;22.66;nan;93177.28;5062944;28;20332;-67
2022/04/01 09:20:46;;;;;;;58.25;12.50;;;;;;;23.00;nan;93160.63;5062979;28;20738;-69
2022/04/01 09:23:13;;;;;;;69.82;12.43;;;;;;;23.15;nan;93173.63;5060330;28;20252;-69
2022/04/01 09:25:49;;;;;;;65.85;12.40;;;;;;;23.13;nan;93167.81;5064112;28;20205;-69
2022/04/01 09:28:26;;;;;;;63.53;10.45;;;;;;;23.34;nan;93175.75;5064248;28;20247;-69
2022/04/01 09:30:58;;;;;;;52.90;11.43;;;;;;;23.48;nan;93164.63;5064064;28;20722;-70
2022/04/01 09:33:32;;;;;;;59.88;10.85;;;;;;;23.11;nan;93180.13;5062575;28;20293;-69
2022/04/01 09:36:04;;;;;;;48.55;10.93;;;;;;;22.95;nan;93168.91;5064691;28;20279;-68
2022/04/01 09:38:30;;;;;;;58.70;9.43;;;;;;;23.05;nan;93161.69;5063222;28;20548;-69
2022/04/01 09:41:03;;;;;;;55.10;11.68;;;;;;;23.41;nan;93161.91;5062222;28;20734;-68
2022/04/01 09:43:32;;;;;;;60.15;9.32;;;;;;;23.59;nan;93164.22;5063177;28;20212;-70
2022/04/01 09:46:04;;;;;;;57.40;11.23;;;;;;;23.66;nan;93172.13;5064236;28;20294;-69
2022/04/01 09:48:40;;;;;;;43.92;9.35;;;;;;;23.71;nan;93152.47;5062619;28;20194;-69
2022/04/01 09:51:10;;;;;;;46.10;9.27;;;;;;;23.27;nan;93162.66;5063758;28;20225;-69
2022/04/01 09:53:37;;;;;;;74.13;12.02;;;;;;;22.85;nan;93170.91;5062036;28;20201;-68
2022/04/01 09:56:06;;;;;;;54.63;9.60;;;;;;;22.81;nan;93174.81;5064118;28;20206;-69
2022/04/01 09:58:33;;;;;;;68.70;11.73;;;;;;;22.76;nan;93182.25;5063377;28;21618;-68
2022/04/01 10:01:02;;;;;;;66.18;10.80;;;;;;;22.70;nan;93154.47;5063469;28;20233;-68
2022/04/01 10:03:29;;;;;;;51.38;10.25;;;;;;;22.92;nan;93145.94;5061855;28;20331;-68
2022/04/01 10:05:57;;;;;;;57.22;10.40;;;;;;;23.07;nan;93164.91;5062998;28;20232;-70
2022/04/01 10:08:27;;;;;;;57.08;9.80;;;;;;;23.25;nan;93156.06;5061897;28;20255;-71
2022/04/01 10:10:54;;;;;;;72.28;10.32;;;;;;;22.93;nan;93178.63;5062875;28;20201;-70
2022/04/01 10:13:29;;;;;;;54.22;12.50;;;;;;;22.70;nan;93175.16;5061619;28;20198;-71
2022/04/01 10:15:58;;;;;;;49.47;10.43;;;;;;;22.84;nan;93187.41;5061599;28;20213;-68
2022/04/01 10:18:26;;;;;;;59.13;10.07;;;;;;;23.02;nan;93167.22;5071376;28;20615;-69
2022/04/01 10:20:55;;;;;;;62.70;10.75;;;;;;;22.86;nan;93175.09;5073078;28;20251;-69
2022/04/01 10:23:25;;;;;;;52.90;10.10;;;;;;;22.67;nan;93168.53;5066705;28;20237;-68
2022/04/01 10:25:59;;;;;;;54.13;10.07;;;;;;;22.79;nan;93153.44;5066538;28;20723;-70
2022/04/01 10:28:28;;;;;;;45.83;8.95;;;;;;;22.91;nan;93133.16;5065581;28;20193;-68
2022/04/01 10:30:56;;;;;;;50.90;10.48;;;;;;;22.91;nan;93154.69;5066789;28;20198;-69
2022/04/01 10:33:25;;;;;;;54.50;9.30;;;;;;;23.01;nan;93133.75;5067714;28;20723;-69
2022/04/01 10:35:52;;;;;;;48.33;9.25;;;;;;;23.06;nan;93141.78;5070892;28;20200;-70
2022/04/01 10:38:21;;;;;;;54.78;10.02;;;;;;;22.80;nan;93142.09;5088260;28;20284;-70
2022/04/01 10:40:50;;;;;;;54.22;8.35;;;;;;;22.84;nan;93112.31;5073129;28;20238;-71
2022/04/01 10:43:19;;;;;;;43.95;9.48;;;;;;;22.63;nan;93143.16;5068065;28;20194;-71
2022/04/01 10:46:02;;;;;;;62.75;10.60;;;;;;;23.05;nan;93135.78;5067879;28;20717;-70
2022/04/01 10:54:06;;;;;;;56.00;10.85;;;;;;;22.94;nan;93122.44;5072524;28;20380;-69
2022/04/01 10:56:36;;;;;;;51.90;9.35;;;;;;;23.05;nan;93122.03;5071939;28;20260;-70
2022/04/01 10:59:14;;;;;;;47.08;7.82;;;;;;;22.98;nan;93119.34;5071479;28;20202;-69
2022/04/01 11:02:02;;;;;;;45.40;9.40;;;;;;;22.81;nan;93111.84;5071599;28;20196;-70
2022/04/01 11:04:31;;;;;;;39.38;7.50;;;;;;;22.97;nan;93097.00;5071339;28;20295;-69
2022/04/01 11:07:00;;;;;;;40.20;9.50;;;;;;;23.41;nan;93109.28;5086036;28;20619;-70
2022/04/01 11:09:39;;;;;;;45.60;7.97;;;;;;;23.45;nan;93100.16;5072008;28;20220;-69
2022/04/01 11:12:27;;;;;;;28.08;8.05;;;;;;;23.19;nan;93094.56;5071798;28;20320;-69
2022/04/01 11:15:19;;;;;;;47.63;9.68;;;;;;;22.95;nan;93098.97;5081190;28;20220;-69
2022/04/01 11:18:07;;;;;;;43.42;7.95;;;;;;;22.68;nan;93091.69;5092410;28;20276;-69
2022/04/01 11:20:35;;;;;;;29.58;7.63;;;;;;;22.56;nan;93105.97;5091075;28;20197;-69
2022/04/01 11:23:10;;;;;;;33.55;6.75;;;;;;;22.22;nan;93114.91;5092490;28;20755;-69
2022/04/01 11:25:53;;;;;;;42.53;7.65;;;;;;;21.75;nan;93140.75;5084155;28;20262;-69
2022/04/01 11:28:20;;;;;;;40.20;7.80;;;;;;;21.56;nan;93148.81;5082283;28;20201;-69
2022/04/01 11:31:09;;;;;;;60.85;9.10;;;;;;;21.58;nan;93142.53;5071345;28;20191;-70
2022/04/01 11:33:38;;;;;;;45.20;8.23;;;;;;;21.52;nan;93150.97;5071941;28;20195;-70
2022/04/01 11:36:07;;;;;;;45.13;8.23;;;;;;;21.52;nan;93142.41;5070434;28;20256;-70
2022/04/01 11:38:34;;;;;;;34.20;10.07;;;;;;;21.21;nan;93157.75;5071842;28;20199;-70
2022/04/01 11:41:03;;;;;;;59.95;10.35;;;;;;;21.15;nan;93161.75;5071842;28;20218;-70
2022/04/01 11:43:33;;;;;;;46.92;9.00;;;;;;;21.27;nan;93146.78;5072906;28;20368;-69
2022/04/01 11:46:03;;;;;;;48.00;9.85;;;;;;;21.05;nan;93153.34;5071871;28;20281;-70
2022/04/01 11:48:32;;;;;;;39.97;8.75;;;;;;;20.84;nan;93156.38;5086206;28;20637;-69
2022/04/01 11:51:02;;;;;;;36.58;9.13;;;;;;;20.37;nan;93153.53;5078433;28;20194;-69
2022/04/01 11:53:32;;;;;;;42.30;9.38;;;;;;;19.58;nan;93162.28;5069400;28;20225;-70
2022/04/01 11:56:00;;;;;;;47.95;9.32;;;;;;;19.19;nan;93171.34;5079659;28;20196;-69
2022/04/01 11:58:34;;;;;;;46.90;9.35;;;;;;;19.36;nan;93173.88;5082745;28;20204;-69
2022/04/01 12:01:01;;;;;;;36.92;8.90;;;;;;;19.43;nan;93173.28;5091991;28;20257;-70